Time;durP1;ratioP1;P1;durP2;ratioP2;P2;SDS_P1;SDS_P2;PMS_P1;PMS_P2;Temp;Humidity;BMP_temperature;BMP_pressure;BME280_temperature;BME280_humidity;BME280_pressure;Samples;Min_cycle;Max_cycle;Signal;HPM_P1;HPM_P2
2024/01/05 00:00:42;;;;;;;13.95;2.70;;;7.10;99.90;;;;;;4957967;28;20126;-54
2024/01/05 00:03:07;;;;;;;13.35;2.22;;;7.20;99.90;;;;;;4958090;28;20031;-56
2024/01/05 00:05:35;;;;;;;18.30;3.25;;;7.20;99.90;;;;;;4963172;28;20027;-52
2024/01/05 00:08:01;;;;;;;7.15;2.05;;;7.20;99.90;;;;;;4956385;28;20075;-53
2024/01/05 00:10:26;;;;;;;7.85;1.75;;;7.10;99.90;;;;;;4955064;28;20432;-55
2024/01/05 00:12:52;;;;;;;10.98;3.28;;;7.10;99.90;;;;;;4942258;28;20081;-56
2024/01/05 00:15:18;;;;;;;15.73;2.30;;;7.10;99.90;;;;;;4951739;28;20041;-53
2024/01/05 00:17:44;;;;;;;8.77;1.85;;;7.10;99.90;;;;;;4942064;29;20526;-54
2024/01/05 00:20:10;;;;;;;11.13;2.08;;;7.10;99.90;;;;;;4943663;28;20038;-51
2024/01/05 00:22:36;;;;;;;11.57;2.15;;;7.10;99.90;;;;;;4945014;28;20450;-57
2024/01/05 00:25:03;;;;;;;9.80;2.45;;;7.10;99.90;;;;;;4944744;28;20087;-55
2024/01/05 00:27:29;;;;;;;14.77;2.45;;;7.10;99.90;;;;;;4954651;28;20041;-58
2024/01/05 00:29:56;;;;;;;10.48;2.03;;;7.10;99.90;;;;;;4958263;28;20027;-58
2024/01/05 00:32:22;;;;;;;24.52;2.58;;;7.10;99.90;;;;;;4947201;28;20071;-55
2024/01/05 00:34:47;;;;;;;20.30;2.78;;;7.20;99.90;;;;;;4953006;28;20443;-55
2024/01/05 00:37:13;;;;;;;14.88;2.03;;;7.20;99.90;;;;;;4954865;28;20026;-59
2024/01/05 00:39:39;;;;;;;10.48;1.92;;;7.10;99.90;;;;;;4959438;28;20125;-56
2024/01/05 00:42:05;;;;;;;11.10;2.35;;;7.20;99.90;;;;;;4953629;28;20038;-57
2024/01/05 00:44:31;;;;;;;11.38;2.50;;;7.20;99.90;;;;;;4954093;28;20086;-52
2024/01/05 00:46:56;;;;;;;6.78;1.52;;;7.20;99.90;;;;;;4962091;28;20433;-54
2024/01/05 00:49:22;;;;;;;12.55;3.67;;;7.20;99.90;;;;;;4960207;28;20031;-52
2024/01/05 00:51:48;;;;;;;19.58;2.10;;;7.20;99.90;;;;;;4954834;28;20027;-57
2024/01/05 00:54:13;;;;;;;16.17;1.75;;;7.20;99.90;;;;;;4966020;28;20020;-55
2024/01/05 00:56:39;;;;;;;10.07;2.10;;;7.10;99.90;;;;;;4952743;28;20107;-55
2024/01/05 00:59:06;;;;;;;12.43;1.92;;;7.10;99.90;;;;;;4955802;28;20559;-55
2024/01/05 01:01:32;;;;;;;10.10;1.63;;;7.10;99.90;;;;;;4960839;28;20090;-54
2024/01/05 01:03:57;;;;;;;17.17;1.75;;;7.10;99.90;;;;;;4948271;28;20047;-53
2024/01/05 01:06:23;;;;;;;14.30;2.15;;;7.10;99.90;;;;;;4953863;28;20065;-58
2024/01/05 01:08:49;;;;;;;13.98;3.08;;;7.00;99.90;;;;;;4962586;28;20537;-55
2024/01/05 01:11:15;;;;;;;9.35;2.63;;;7.00;99.90;;;;;;4962711;28;20077;-54
2024/01/05 01:13:41;;;;;;;16.42;2.50;;;6.90;99.90;;;;;;4969594;28;20413;-52
2024/01/05 01:16:07;;;;;;;14.35;2.67;;;6.80;99.90;;;;;;4955189;28;20031;-54
2024/01/05 01:18:33;;;;;;;12.40;1.80;;;6.70;99.90;;;;;;4954677;28;20045;-58
2024/01/05 01:20:58;;;;;;;7.97;2.60;;;6.70;99.90;;;;;;4964113;28;20375;-55
2024/01/05 01:23:24;;;;;;;20.92;3.45;;;6.70;99.90;;;;;;4942299;28;20073;-58
2024/01/05 01:25:49;;;;;;;7.57;1.88;;;6.70;99.90;;;;;;4983227;28;20042;-54
2024/01/05 01:28:15;;;;;;;29.10;2.80;;;6.70;99.90;;;;;;4975860;28;20370;-55
2024/01/05 01:30:40;;;;;;;11.75;1.95;;;6.70;99.90;;;;;;4975429;28;20035;-55
2024/01/05 01:33:06;;;;;;;10.18;2.30;;;6.80;99.90;;;;;;4965501;28;20386;-53
2024/01/05 01:35:32;;;;;;;15.40;1.73;;;6.80;99.90;;;;;;4969773;28;20039;-54
2024/01/05 01:37:57;;;;;;;9.85;1.83;;;6.80;99.90;;;;;;4970960;28;20038;-53
2024/01/05 01:40:23;;;;;;;15.15;2.22;;;6.80;99.90;;;;;;4974425;28;20030;-53
2024/01/05 01:42:49;;;;;;;11.07;2.60;;;6.80;99.90;;;;;;4974263;28;20125;-53
2024/01/05 01:45:15;;;;;;;6.82;1.92;;;6.80;99.90;;;;;;4972271;28;20081;-55
2024/01/05 01:47:41;;;;;;;7.00;1.70;;;6.80;99.90;;;;;;4973042;28;20046;-57
2024/01/05 01:50:07;;;;;;;14.07;2.15;;;6.70;99.90;;;;;;4977044;28;20046;-55
2024/01/05 01:52:36;;;;;;;14.77;2.20;;;6.70;99.90;;;;;;4973781;28;20077;-55
2024/01/05 01:55:02;;;;;;;18.35;4.07;;;6.70;99.90;;;;;;4964245;28;20067;-52
2024/01/05 01:57:28;;;;;;;8.43;2.15;;;6.70;99.90;;;;;;4954412;28;20062;-52
2024/01/05 01:59:53;;;;;;;18.75;2.80;;;6.70;99.90;;;;;;4949722;29;20079;-53
2024/01/05 02:02:19;;;;;;;8.27;2.38;;;6.70;99.90;;;;;;4943266;29;20545;-54
2024/01/05 02:04:46;;;;;;;10.98;2.75;;;6.70;99.90;;;;;;4951443;28;20035;-58
2024/01/05 02:07:12;;;;;;;11.98;2.50;;;6.80;99.90;;;;;;4952383;28;20569;-55
2024/01/05 02:09:39;;;;;;;19.90;2.58;;;6.70;99.90;;;;;;4954121;29;20136;-56
2024/01/05 02:12:05;;;;;;;9.65;2.67;;;6.70;99.90;;;;;;4954397;29;20063;-57
2024/01/05 02:14:31;;;;;;;16.33;3.10;;;6.70;99.90;;;;;;4951636;29;20446;-52
2024/01/05 02:16:56;;;;;;;12.50;3.05;;;6.70;99.90;;;;;;4945564;28;20031;-53
2024/01/05 02:19:22;;;;;;;5.00;2.38;;;6.60;99.90;;;;;;4969421;28;20114;-55
2024/01/05 02:21:52;;;;;;;18.83;3.53;;;6.50;99.90;;;;;;4947423;29;20058;-58
2024/01/05 02:24:18;;;;;;;16.02;2.53;;;6.50;99.90;;;;;;4951227;29;20461;-57
2024/01/05 02:26:43;;;;;;;18.75;5.90;;;6.40;99.90;;;;;;4945944;28;20176;-51
2024/01/05 02:29:09;;;;;;;15.25;4.68;;;6.40;99.90;;;;;;4950915;29;20031;-54
2024/01/05 02:31:34;;;;;;;16.92;5.45;;;6.40;99.90;;;;;;4951337;29;20438;-52
2024/01/05 02:34:00;;;;;;;21.42;6.28;;;6.40;99.90;;;;;;4953392;29;20058;-58
2024/01/05 02:36:26;;;;;;;29.30;4.90;;;6.40;99.90;;;;;;4953962;28;20035;-52
2024/01/05 02:38:51;;;;;;;13.63;2.78;;;6.50;99.90;;;;;;4954020;29;20050;-51
2024/01/05 02:41:17;;;;;;;17.02;2.72;;;6.60;99.90;;;;;;4949301;29;20038;-52
2024/01/05 02:43:43;;;;;;;9.60;2.03;;;6.60;99.90;;;;;;4948539;29;20450;-56
2024/01/05 02:46:09;;;;;;;11.25;2.45;;;6.70;99.90;;;;;;4952615;28;20034;-55
2024/01/05 02:48:35;;;;;;;11.95;2.45;;;6.70;99.90;;;;;;4950090;28;20398;-53
2024/01/05 02:51:00;;;;;;;18.40;2.10;;;6.80;99.90;;;;;;4951906;29;20031;-54
2024/01/05 02:53:26;;;;;;;5.90;2.17;;;6.80;99.90;;;;;;4953008;29;20524;-55
2024/01/05 02:55:51;;;;;;;9.63;1.95;;;6.90;99.90;;;;;;4952278;28;20039;-54
2024/01/05 02:58:17;;;;;;;6.00;1.60;;;6.90;99.90;;;;;;4951326;29;20401;-57
2024/01/05 03:00:43;;;;;;;17.23;2.78;;;6.90;99.90;;;;;;4946161;29;20038;-55
2024/01/05 03:03:08;;;;;;;4.70;1.63;;;6.90;99.90;;;;;;4952952;29;20031;-52
2024/01/05 03:05:34;;;;;;;7.68;2.15;;;7.00;99.90;;;;;;4950254;28;20458;-55
2024/01/05 03:07:59;;;;;;;4.90;1.98;;;7.00;99.90;;;;;;4949434;29;20038;-56
2024/01/05 03:10:25;;;;;;;10.20;2.63;;;7.00;99.90;;;;;;4947239;29;20102;-52
2024/01/05 03:12:51;;;;;;;11.90;2.00;;;7.00;99.90;;;;;;4951843;29;20019;-52
2024/01/05 03:15:17;;;;;;;4.97;1.75;;;7.00;99.90;;;;;;4947210;28;20031;-56
2024/01/05 03:17:43;;;;;;;12.75;2.40;;;7.00;99.90;;;;;;4945950;29;20126;-56
2024/01/05 03:20:09;;;;;;;8.50;2.47;;;6.90;99.90;;;;;;4945701;28;20098;-56
2024/01/05 03:22:35;;;;;;;11.95;2.03;;;6.70;99.90;;;;;;4952486;28;20020;-53
2024/01/05 03:25:02;;;;;;;12.00;2.05;;;6.60;99.90;;;;;;4951887;28;20034;-53
2024/01/05 03:27:28;;;;;;;13.88;2.08;;;6.50;99.90;;;;;;4946657;28;20027;-55
2024/01/05 03:29:55;;;;;;;13.02;2.45;;;6.50;99.90;;;;;;4954124;28;20038;-55
2024/01/05 03:32:21;;;;;;;11.50;2.20;;;6.40;99.90;;;;;;4950494;28;20031;-56
2024/01/05 03:34:46;;;;;;;9.63;2.30;;;6.30;99.90;;;;;;4953836;28;20031;-59
2024/01/05 03:37:12;;;;;;;14.07;2.13;;;6.30;99.90;;;;;;4951839;28;20027;-53
2024/01/05 03:39:38;;;;;;;15.60;2.30;;;6.30;99.90;;;;;;4953204;28;20041;-52
2024/01/05 03:42:03;;;;;;;12.07;2.15;;;6.20;99.90;;;;;;4952059;28;20034;-56
2024/01/05 03:44:29;;;;;;;6.82;2.10;;;6.20;99.90;;;;;;4944842;28;20560;-56
2024/01/05 03:46:55;;;;;;;6.05;1.83;;;6.10;99.90;;;;;;4950790;28;20038;-56
2024/01/05 03:49:21;;;;;;;13.07;2.47;;;6.10;99.90;;;;;;4946119;28;20066;-53
2024/01/05 03:51:46;;;;;;;11.43;3.75;;;6.00;99.90;;;;;;4951826;29;20107;-52
2024/01/05 03:54:12;;;;;;;8.30;2.10;;;6.00;99.90;;;;;;4948934;28;20042;-54
2024/01/05 03:56:42;;;;;;;12.30;1.67;;;5.90;99.90;;;;;;4952268;28;20023;-59
2024/01/05 03:59:08;;;;;;;16.25;2.08;;;5.80;99.90;;;;;;4948539;28;20035;-59
2024/01/05 04:01:41;;;;;;;11.85;2.28;;;5.80;99.90;;;;;;4939721;28;20036;-56
2024/01/05 04:04:07;;;;;;;13.20;2.95;;;5.80;99.90;;;;;;4945653;28;20389;-58
2024/01/05 04:06:33;;;;;;;11.02;2.33;;;5.70;99.90;;;;;;4955952;28;20405;-53
2024/01/05 04:08:58;;;;;;;12.40;2.53;;;5.70;99.90;;;;;;4949416;28;20027;-55
2024/01/05 04:11:25;;;;;;;6.72;1.95;;;5.70;99.90;;;;;;4952605;28;20027;-55
2024/01/05 04:13:51;;;;;;;17.98;2.25;;;5.60;99.90;;;;;;4953783;28;20045;-59
2024/01/05 04:16:17;;;;;;;20.45;2.50;;;5.70;99.90;;;;;;4951748;28;20027;-54
2024/01/05 04:18:42;;;;;;;15.50;2.63;;;5.70;99.90;;;;;;4950105;28;20038;-58
2024/01/05 04:21:09;;;;;;;16.85;4.35;;;5.70;99.90;;;;;;4950560;28;20058;-55
2024/01/05 04:23:35;;;;;;;9.52;2.13;;;5.70;99.90;;;;;;4951316;28;20832;-56
2024/01/05 04:26:00;;;;;;;13.43;2.10;;;5.80;99.90;;;;;;4951191;28;20099;-53
2024/01/05 04:28:26;;;;;;;11.27;2.58;;;5.70;99.90;;;;;;4942607;28;20054;-51
2024/01/05 04:30:51;;;;;;;12.80;2.25;;;5.70;99.90;;;;;;4944716;28;20030;-59
2024/01/05 04:33:17;;;;;;;14.40;2.38;;;5.80;99.90;;;;;;4948955;28;20035;-58
2024/01/05 04:35:44;;;;;;;9.27;1.95;;;5.80;99.90;;;;;;4943380;28;20473;-58
2024/01/05 04:38:09;;;;;;;16.17;2.97;;;5.90;99.90;;;;;;4955943;28;20379;-58
2024/01/05 04:40:35;;;;;;;19.10;2.63;;;5.90;99.90;;;;;;4939839;29;20056;-55
2024/01/05 04:43:00;;;;;;;13.38;4.15;;;5.90;99.90;;;;;;4944411;28;20034;-52
2024/01/05 04:45:26;;;;;;;11.95;3.42;;;5.90;99.90;;;;;;4951517;28;20047;-56
2024/01/05 04:47:51;;;;;;;15.05;3.53;;;5.90;99.90;;;;;;4953763;28;20032;-55
2024/01/05 04:50:17;;;;;;;16.92;5.50;;;6.00;99.90;;;;;;4949311;28;20050;-56
2024/01/05 04:52:43;;;;;;;27.17;6.60;;;6.00;99.90;;;;;;4951416;28;20051;-56
2024/01/05 04:55:09;;;;;;;15.55;5.13;;;6.10;99.90;;;;;;4951080;28;20027;-55
2024/01/05 04:57:35;;;;;;;19.38;4.88;;;6.20;99.90;;;;;;4943020;29;20035;-52
2024/01/05 05:00:01;;;;;;;16.40;3.72;;;6.30;99.90;;;;;;4953815;28;20031;-53
2024/01/05 05:02:26;;;;;;;18.38;2.95;;;6.40;99.90;;;;;;4951898;28;20037;-57
2024/01/05 05:04:52;;;;;;;20.23;3.63;;;6.40;99.90;;;;;;4953059;28;20047;-54
2024/01/05 05:07:17;;;;;;;18.70;3.70;;;6.50;99.90;;;;;;4953290;28;20027;-56
2024/01/05 05:09:43;;;;;;;14.30;2.25;;;6.50;99.90;;;;;;4943338;28;20546;-56
2024/01/05 05:12:08;;;;;;;11.93;2.70;;;6.60;99.90;;;;;;4950928;28;20024;-57
2024/01/05 05:14:34;;;;;;;10.38;2.00;;;6.60;99.90;;;;;;4951164;28;20106;-54
2024/01/05 05:17:00;;;;;;;8.18;2.33;;;6.60;99.90;;;;;;4950100;28;20474;-56
2024/01/05 05:19:25;;;;;;;9.82;2.05;;;6.70;99.90;;;;;;4947377;28;20119;-58
2024/01/05 05:21:51;;;;;;;9.95;2.28;;;6.70;99.90;;;;;;4949106;28;20401;-56
2024/01/05 05:24:16;;;;;;;16.45;2.22;;;6.70;99.90;;;;;;4948417;28;20034;-55
2024/01/05 05:26:42;;;;;;;9.35;3.00;;;6.70;99.90;;;;;;4956990;28;20072;-58
2024/01/05 05:29:08;;;;;;;4.40;2.33;;;6.80;99.90;;;;;;4950403;28;20050;-58
2024/01/05 05:31:33;;;;;;;5.57;2.05;;;6.80;99.90;;;;;;4959759;28;20020;-55
2024/01/05 05:33:59;;;;;;;9.80;2.25;;;6.80;99.90;;;;;;4952259;28;20106;-54
2024/01/05 05:36:24;;;;;;;15.90;1.67;;;6.80;99.90;;;;;;4949169;28;20024;-53
2024/01/05 05:38:50;;;;;;;7.38;1.40;;;6.90;99.90;;;;;;4954584;28;20059;-57
2024/01/05 05:41:15;;;;;;;11.45;2.35;;;6.90;99.90;;;;;;4956064;28;20034;-52
2024/01/05 05:43:41;;;;;;;8.95;1.77;;;7.00;99.90;;;;;;4947255;28;20111;-52
2024/01/05 05:46:07;;;;;;;5.82;1.90;;;7.00;99.90;;;;;;4957352;28;20027;-59
2024/01/05 05:48:32;;;;;;;9.30;2.08;;;7.00;99.90;;;;;;4956097;28;20027;-56
2024/01/05 05:50:58;;;;;;;8.18;2.08;;;6.90;99.90;;;;;;4957605;28;20386;-53
2024/01/05 05:53:24;;;;;;;13.65;1.83;;;6.90;99.90;;;;;;4959212;28;20030;-52
2024/01/05 05:55:50;;;;;;;10.10;2.38;;;6.90;99.90;;;;;;4957863;28;20043;-54
2024/01/05 05:58:15;;;;;;;9.63;1.98;;;6.90;99.90;;;;;;4956818;28;20109;-53
2024/01/05 06:00:41;;;;;;;6.22;1.88;;;6.90;99.90;;;;;;4951861;28;20115;-59
2024/01/05 06:03:06;;;;;;;9.18;1.60;;;6.90;99.90;;;;;;4954837;28;20042;-56
2024/01/05 06:05:32;;;;;;;5.20;1.95;;;6.90;99.90;;;;;;4956509;28;20074;-56
2024/01/05 06:07:57;;;;;;;4.53;1.42;;;7.00;99.90;;;;;;4952173;28;20036;-55
2024/01/05 06:10:23;;;;;;;9.80;1.60;;;7.00;99.90;;;;;;4951958;28;20024;-56
2024/01/05 06:12:49;;;;;;;15.07;2.22;;;6.90;99.90;;;;;;4955004;28;20114;-59
2024/01/05 06:15:14;;;;;;;7.68;2.60;;;7.00;99.90;;;;;;4957666;28;20038;-57
2024/01/05 06:17:40;;;;;;;7.72;3.65;;;7.00;99.90;;;;;;4955980;28;20541;-57
2024/01/05 06:20:08;;;;;;;7.55;1.95;;;7.00;99.90;;;;;;4958427;28;20031;-55
2024/01/05 06:22:33;;;;;;;6.60;1.58;;;7.10;99.90;;;;;;4952904;28;20027;-57
2024/01/05 06:24:59;;;;;;;8.88;2.20;;;7.10;99.90;;;;;;4957956;28;20090;-54
2024/01/05 06:27:25;;;;;;;5.70;1.25;;;7.10;99.90;;;;;;4950523;28;20045;-57
2024/01/05 06:29:50;;;;;;;11.63;1.67;;;7.10;99.90;;;;;;4951643;28;20052;-57
2024/01/05 06:32:16;;;;;;;3.85;1.10;;;7.10;99.90;;;;;;4954287;28;20031;-56
2024/01/05 06:34:41;;;;;;;6.22;1.58;;;7.10;99.90;;;;;;4950502;28;20050;-56
2024/01/05 06:37:07;;;;;;;8.20;1.30;;;7.10;99.90;;;;;;4957115;28;20509;-54
2024/01/05 06:39:32;;;;;;;13.43;1.45;;;7.20;99.90;;;;;;4952755;28;20027;-56
2024/01/05 06:41:58;;;;;;;5.85;1.20;;;7.30;99.90;;;;;;4954876;28;20106;-57
2024/01/05 06:44:23;;;;;;;3.17;1.10;;;7.30;99.90;;;;;;4954676;28;20430;-57
2024/01/05 06:46:50;;;;;;;5.97;1.35;;;7.30;99.90;;;;;;4951604;28;20039;-55
2024/01/05 06:49:16;;;;;;;3.17;1.17;;;7.20;99.90;;;;;;4953560;28;20179;-54
2024/01/05 06:51:42;;;;;;;14.27;1.90;;;7.00;99.90;;;;;;4955142;28;20102;-55
2024/01/05 06:54:07;;;;;;;1.65;0.75;;;7.00;99.90;;;;;;4962709;28;20081;-55
2024/01/05 06:56:34;;;;;;;4.90;1.42;;;6.80;99.90;;;;;;4959158;28;20030;-54
2024/01/05 06:59:04;;;;;;;6.80;1.08;;;6.70;99.90;;;;;;4962159;28;20031;-55
2024/01/05 07:01:31;;;;;;;5.13;1.75;;;6.80;99.90;;;;;;4954778;28;20639;-55
2024/01/05 07:03:57;;;;;;;6.88;1.25;;;6.80;99.90;;;;;;4957884;28;20121;-55
2024/01/05 07:06:23;;;;;;;3.58;1.15;;;6.90;99.90;;;;;;4963188;28;20153;-55
2024/01/05 07:08:48;;;;;;;6.80;1.70;;;6.90;99.90;;;;;;4960534;28;20500;-53
2024/01/05 07:11:24;;;;;;;4.88;1.02;;;7.00;99.90;;;;;;4965233;28;20034;-56
2024/01/05 07:13:50;;;;;;;1.88;0.90;;;7.10;99.90;;;;;;4954453;28;20125;-52
2024/01/05 07:16:20;;;;;;;7.43;1.20;;;7.20;99.90;;;;;;4953690;28;20112;-55
2024/01/05 07:18:46;;;;;;;9.63;1.65;;;7.30;99.90;;;;;;4959709;28;20054;-59
2024/01/05 07:21:13;;;;;;;2.97;1.00;;;7.40;99.90;;;;;;4961537;28;20075;-55
2024/01/05 07:23:39;;;;;;;6.20;1.30;;;7.40;99.90;;;;;;4957155;28;20030;-56
2024/01/05 07:26:05;;;;;;;5.30;1.27;;;7.40;99.90;;;;;;4963262;28;20101;-55
2024/01/05 07:28:30;;;;;;;5.55;1.05;;;7.40;99.90;;;;;;4961489;28;20146;-54
2024/01/05 07:30:56;;;;;;;3.60;0.90;;;7.50;99.90;;;;;;4955140;28;20125;-55
2024/01/05 07:33:21;;;;;;;8.68;1.30;;;7.50;99.90;;;;;;4956133;28;20031;-56
2024/01/05 07:35:48;;;;;;;6.47;1.42;;;7.50;99.90;;;;;;4961604;28;20109;-58
2024/01/05 07:38:13;;;;;;;2.20;0.90;;;7.50;99.90;;;;;;4960466;28;20485;-55
2024/01/05 07:40:39;;;;;;;8.68;1.48;;;7.50;99.90;;;;;;4961187;28;20042;-56
2024/01/05 07:43:05;;;;;;;7.72;1.30;;;7.50;99.90;;;;;;4963128;28;20031;-52
2024/01/05 07:45:31;;;;;;;8.10;2.38;;;7.50;99.90;;;;;;4963530;28;20027;-55
2024/01/05 07:47:57;;;;;;;3.20;1.23;;;7.50;99.90;;;;;;4955152;28;20553;-53
2024/01/05 07:50:24;;;;;;;4.85;1.50;;;7.50;99.90;;;;;;4964655;28;20665;-53
2024/01/05 07:52:49;;;;;;;5.80;1.20;;;7.50;99.90;;;;;;4956735;28;20031;-56
2024/01/05 07:55:15;;;;;;;3.53;1.15;;;7.50;99.90;;;;;;4954299;28;20437;-56
2024/01/05 07:57:41;;;;;;;2.60;1.30;;;7.50;99.90;;;;;;4962311;28;20035;-57
2024/01/05 08:00:07;;;;;;;4.60;1.65;;;7.50;99.90;;;;;;4961916;28;20027;-54
2024/01/05 08:02:32;;;;;;;5.65;2.00;;;7.60;99.90;;;;;;4956665;28;20512;-57
2024/01/05 08:04:58;;;;;;;3.20;0.95;;;7.60;99.90;;;;;;4957305;28;20031;-54
2024/01/05 08:07:24;;;;;;;6.82;1.10;;;7.60;99.90;;;;;;4962033;28;20112;-54
2024/01/05 08:09:53;;;;;;;4.25;1.17;;;7.60;99.90;;;;;;4959611;28;20031;-55
2024/01/05 08:12:21;;;;;;;12.50;1.30;;;7.60;99.90;;;;;;4952448;28;20051;-52
2024/01/05 08:14:47;;;;;;;4.72;1.40;;;7.60;99.90;;;;;;4956524;28;20054;-57
2024/01/05 08:17:13;;;;;;;5.82;1.35;;;7.60;99.90;;;;;;4957961;28;20058;-56
2024/01/05 08:19:38;;;;;;;5.38;1.02;;;7.60;99.90;;;;;;4962649;28;20026;-57
2024/01/05 08:22:04;;;;;;;2.60;1.20;;;7.60;99.90;;;;;;4953643;28;20030;-54
2024/01/05 08:24:30;;;;;;;5.07;1.80;;;7.50;99.90;;;;;;4952690;28;20031;-54
2024/01/05 08:26:55;;;;;;;5.15;1.58;;;7.50;99.90;;;;;;4960037;28;20560;-56
2024/01/05 08:29:24;;;;;;;7.28;1.02;;;7.50;99.90;;;;;;4958321;28;20373;-55
2024/01/05 08:31:49;;;;;;;15.50;1.52;;;7.50;99.90;;;;;;4950625;28;20510;-55
2024/01/05 08:34:16;;;;;;;3.33;1.02;;;7.50;99.90;;;;;;4960745;28;20081;-54
2024/01/05 08:36:42;;;;;;;1.98;0.77;;;7.70;99.90;;;;;;4962421;28;20405;-56
2024/01/05 08:39:08;;;;;;;3.78;1.02;;;7.70;99.90;;;;;;4960578;28;20086;-57
2024/01/05 08:41:33;;;;;;;3.15;0.60;;;7.80;99.90;;;;;;4964858;28;20019;-52
2024/01/05 08:43:59;;;;;;;3.22;0.88;;;7.90;99.90;;;;;;4961286;28;20038;-56
2024/01/05 08:46:32;;;;;;;5.28;1.77;;;7.90;99.90;;;;;;4958692;28;20027;-55
2024/01/05 08:48:57;;;;;;;5.05;1.27;;;7.90;99.90;;;;;;4963238;28;20031;-57
2024/01/05 08:51:23;;;;;;;6.32;2.38;;;7.90;99.90;;;;;;4965887;28;20089;-56
2024/01/05 08:53:48;;;;;;;7.85;3.28;;;7.90;99.90;;;;;;4958691;28;20035;-55
2024/01/05 08:56:14;;;;;;;13.50;7.97;;;7.90;99.90;;;;;;4957987;28;20482;-52
2024/01/05 08:58:40;;;;;;;17.60;8.27;;;7.90;99.90;;;;;;4959413;28;20035;-53
2024/01/05 09:01:05;;;;;;;14.70;5.13;;;7.90;99.90;;;;;;4951526;28;20027;-55
2024/01/05 09:03:31;;;;;;;5.68;2.28;;;7.90;99.90;;;;;;4959650;28;20097;-55
2024/01/05 09:05:57;;;;;;;8.10;2.67;;;7.90;99.90;;;;;;4949109;28;20086;-54
2024/01/05 09:08:22;;;;;;;4.47;1.70;;;8.00;99.90;;;;;;4956334;28;20027;-58
2024/01/05 09:10:48;;;;;;;7.15;3.83;;;8.10;99.90;;;;;;4961391;28;20030;-54
2024/01/05 09:13:14;;;;;;;10.27;3.35;;;8.20;99.90;;;;;;4955710;28;20035;-55
2024/01/05 09:15:39;;;;;;;10.52;4.63;;;8.30;99.90;;;;;;4961650;28;20034;-57
2024/01/05 09:18:05;;;;;;;9.10;5.55;;;8.30;99.90;;;;;;4960041;28;20031;-56
2024/01/05 09:20:31;;;;;;;10.65;4.43;;;8.40;99.90;;;;;;4963097;28;20056;-56
2024/01/05 09:22:56;;;;;;;6.93;3.45;;;8.40;99.90;;;;;;4968005;28;20462;-60
2024/01/05 09:25:22;;;;;;;6.70;2.72;;;8.50;99.90;;;;;;4969405;28;20114;-55
2024/01/05 09:27:48;;;;;;;7.90;2.45;;;8.60;99.90;;;;;;4968399;28;20031;-56
2024/01/05 09:30:14;;;;;;;7.57;2.50;;;8.60;99.90;;;;;;4961160;28;20022;-57
2024/01/05 09:32:39;;;;;;;3.72;1.77;;;8.70;99.90;;;;;;4954280;28;20506;-55
2024/01/05 09:35:08;;;;;;;3.80;1.88;;;8.60;99.90;;;;;;4965355;28;20492;-56
2024/01/05 09:37:35;;;;;;;7.45;2.92;;;8.50;99.90;;;;;;4962870;28;20054;-57
2024/01/05 09:40:01;;;;;;;5.50;2.10;;;8.40;99.90;;;;;;4959435;28;20522;-56
2024/01/05 09:42:26;;;;;;;8.35;2.53;;;8.30;99.90;;;;;;4952550;28;20130;-56
2024/01/05 09:44:52;;;;;;;7.32;2.95;;;8.20;99.90;;;;;;4959093;28;20075;-57
2024/01/05 09:47:19;;;;;;;2.42;1.13;;;8.20;99.90;;;;;;4957007;28;20061;-54
2024/01/05 09:49:48;;;;;;;3.85;1.98;;;8.10;99.90;;;;;;4967648;28;20086;-57
2024/01/05 09:52:14;;;;;;;6.15;2.00;;;8.10;99.90;;;;;;4962689;28;20029;-56
2024/01/05 09:54:40;;;;;;;4.03;2.17;;;8.00;99.90;;;;;;4956966;28;20038;-55
2024/01/05 09:57:08;;;;;;;4.35;1.17;;;7.90;99.90;;;;;;4962594;28;20578;-56
2024/01/05 09:59:34;;;;;;;10.60;4.38;;;7.80;99.90;;;;;;4961748;28;20038;-56
2024/01/05 10:02:04;;;;;;;28.05;8.80;;;7.70;99.90;;;;;;4961805;28;20046;-57
2024/01/05 10:04:30;;;;;;;29.30;9.23;;;7.60;99.90;;;;;;4965497;28;20015;-56
2024/01/05 10:07:00;;;;;;;20.05;6.93;;;7.60;99.90;;;;;;4964944;28;20114;-55
2024/01/05 10:09:28;;;;;;;5.93;2.25;;;7.60;99.90;;;;;;4960579;28;20122;-55
2024/01/05 10:11:54;;;;;;;7.00;2.08;;;7.70;99.90;;;;;;4956280;28;20027;-54
2024/01/05 10:14:25;;;;;;;40.60;11.85;;;7.70;99.90;;;;;;4966043;28;20027;-55
2024/01/05 10:17:07;;;;;;;8.80;3.88;;;7.70;99.90;;;;;;4959057;28;20035;-55
2024/01/05 10:19:33;;;;;;;1.23;0.82;;;7.80;99.90;;;;;;4955273;28;20039;-58
2024/01/05 10:22:14;;;;;;;1.10;0.30;;;7.80;99.90;;;;;;4956154;28;20031;-55
2024/01/05 10:24:41;;;;;;;0.45;0.32;;;7.80;99.90;;;;;;4961295;28;20034;-54
2024/01/05 10:27:13;;;;;;;5.80;2.20;;;7.90;99.90;;;;;;4956820;28;20098;-56
2024/01/05 10:29:43;;;;;;;5.78;2.08;;;8.00;99.90;;;;;;4956886;28;20031;-56
2024/01/05 10:32:12;;;;;;;4.13;1.98;;;8.20;99.90;;;;;;4960021;28;20031;-55
2024/01/05 10:34:43;;;;;;;5.15;1.80;;;8.40;99.90;;;;;;4950456;28;20032;-54
2024/01/05 10:37:09;;;;;;;1.55;0.85;;;8.60;99.90;;;;;;4957924;28;20066;-56
2024/01/05 10:39:35;;;;;;;5.13;1.77;;;8.70;99.90;;;;;;4957212;28;20023;-55
2024/01/05 10:42:27;;;;;;;0.50;0.50;;;8.70;99.90;;;;;;4958644;28;20405;-56
2024/01/05 10:44:54;;;;;;;4.93;1.05;;;8.80;99.90;;;;;;4952805;28;20031;-56
2024/01/05 10:47:22;;;;;;;0.55;0.55;;;8.80;99.90;;;;;;4960477;28;20115;-54
2024/01/05 10:49:50;;;;;;;3.85;1.30;;;8.70;99.90;;;;;;4960602;28;20042;-55
2024/01/05 10:52:31;;;;;;;0.88;0.50;;;8.70;99.90;;;;;;4951751;28;20396;-55
2024/01/05 10:55:02;;;;;;;2.22;1.13;;;8.80;99.90;;;;;;4945815;28;20078;-54
2024/01/05 10:57:30;;;;;;;3.70;2.08;;;8.90;99.90;;;;;;4946851;28;20087;-55
2024/01/05 10:59:57;;;;;;;5.53;2.47;;;9.10;99.90;;;;;;4961382;28;20384;-56
2024/01/05 11:02:39;;;;;;;3.67;0.98;;;9.20;99.90;;;;;;4962733;28;20493;-55
2024/01/05 11:05:08;;;;;;;0.75;0.47;;;9.20;99.90;;;;;;4963819;28;20033;-56
2024/01/05 11:07:35;;;;;;;3.85;1.33;;;9.30;99.90;;;;;;4969865;28;20023;-55
2024/01/05 11:10:26;;;;;;;0.77;0.47;;;9.30;99.90;;;;;;4963372;28;20089;-53
2024/01/05 11:12:57;;;;;;;0.70;0.40;;;9.10;99.90;;;;;;4961676;28;20082;-56
2024/01/05 11:15:45;;;;;;;3.17;0.93;;;8.90;99.90;;;;;;4962300;28;20049;-54
2024/01/05 11:18:42;;;;;;;7.43;1.38;;;8.80;99.90;;;;;;4963051;28;20049;-55
2024/01/05 11:21:13;;;;;;;1.15;0.43;;;8.70;99.90;;;;;;4961334;28;20031;-53
2024/01/05 11:23:41;;;;;;;2.38;1.10;;;8.60;99.90;;;;;;4962356;28;20033;-53
2024/01/05 11:26:25;;;;;;;5.43;1.00;;;8.50;99.90;;;;;;4959648;28;20134;-55
2024/01/05 11:28:50;;;;;;;3.80;1.23;;;8.50;99.90;;;;;;4957311;28;20027;-51
2024/01/05 11:31:45;;;;;;;2.05;1.02;;;8.50;99.90;;;;;;4958052;28;20031;-52
2024/01/05 11:34:28;;;;;;;1.98;0.93;;;8.50;99.90;;;;;;4963681;28;20027;-55
2024/01/05 11:36:54;;;;;;;0.95;0.55;;;8.50;99.90;;;;;;4960946;28;20481;-52
2024/01/05 11:39:45;;;;;;;2.72;0.75;;;8.50;99.90;;;;;;4957770;28;20035;-55
2024/01/05 11:42:34;;;;;;;2.00;0.90;;;8.50;99.90;;;;;;4965808;28;20448;-52
2024/01/05 11:45:02;;;;;;;1.08;0.50;;;8.40;99.90;;;;;;4960215;28;20035;-57
2024/01/05 11:47:45;;;;;;;4.32;1.08;;;8.40;99.90;;;;;;4961143;28;20034;-55
2024/01/05 11:50:32;;;;;;;3.47;1.45;;;8.40;99.90;;;;;;4967951;28;20381;-55
2024/01/05 11:53:07;;;;;;;21.63;8.48;;;8.30;99.90;;;;;;4961954;28;20035;-55
2024/01/05 11:55:40;;;;;;;19.65;6.63;;;8.30;99.90;;;;;;4969464;28;20106;-54
2024/01/05 11:58:10;;;;;;;7.78;2.80;;;8.20;99.90;;;;;;4963092;28;20054;-52
2024/01/05 12:00:36;;;;;;;8.52;3.83;;;8.20;99.90;;;;;;4984227;28;20030;-55
2024/01/05 12:03:03;;;;;;;18.27;7.70;;;8.30;99.90;;;;;;4972178;28;20042;-56
2024/01/05 12:05:28;;;;;;;4.57;2.33;;;8.30;99.90;;;;;;4969568;28;20039;-57
2024/01/05 12:07:57;;;;;;;8.77;3.30;;;8.30;99.90;;;;;;4973951;28;20075;-55
2024/01/05 12:10:27;;;;;;;2.67;1.35;;;8.30;99.90;;;;;;4967943;28;20401;-54
2024/01/05 12:12:54;;;;;;;44.35;15.13;;;8.30;99.90;;;;;;4971401;28;20023;-55
2024/01/05 12:15:21;;;;;;;9.32;3.95;;;8.20;99.90;;;;;;4972645;28;20027;-54
2024/01/05 12:17:47;;;;;;;7.30;3.05;;;8.20;99.90;;;;;;4969983;28;20055;-56
2024/01/05 12:20:13;;;;;;;4.95;2.83;;;8.20;99.90;;;;;;4980203;28;20113;-61
2024/01/05 12:22:40;;;;;;;8.75;2.10;;;8.10;99.90;;;;;;4971958;28;20023;-55
2024/01/05 12:25:06;;;;;;;9.95;4.13;;;8.10;99.90;;;;;;4969237;28;20054;-55
2024/01/05 12:27:38;;;;;;;8.40;3.83;;;8.20;99.90;;;;;;4968958;28;20744;-59
2024/01/05 12:30:08;;;;;;;7.63;3.38;;;8.20;99.90;;;;;;4970831;28;20035;-55
2024/01/05 12:32:34;;;;;;;7.47;2.50;;;8.10;99.90;;;;;;4969694;28;20122;-55
2024/01/05 12:35:01;;;;;;;9.45;3.13;;;8.10;99.90;;;;;;4970504;28;20444;-56
2024/01/05 12:37:26;;;;;;;6.80;2.17;;;8.10;99.90;;;;;;4971049;28;20385;-54
2024/01/05 12:39:52;;;;;;;3.65;1.98;;;8.10;99.90;;;;;;4972178;28;20038;-55
2024/01/05 12:42:18;;;;;;;4.50;1.83;;;8.10;99.90;;;;;;4964472;28;20416;-57
2024/01/05 12:44:44;;;;;;;3.38;1.40;;;8.20;99.90;;;;;;4968943;28;20038;-52
2024/01/05 12:47:10;;;;;;;2.75;1.13;;;8.10;99.90;;;;;;4969843;28;20105;-56
2024/01/05 12:49:37;;;;;;;1.60;0.90;;;8.20;99.90;;;;;;4971030;28;20031;-55
2024/01/05 12:52:04;;;;;;;5.10;2.08;;;8.30;99.90;;;;;;4973327;28;20117;-57